CKT74F KPMD-KBGR
Flight info
| Callsign | CKT74F |
|---|---|
| Flight time | N/A |
| Altitude | 37000 |
| Route | PMD LAS PGA DVC HBU FQF LBF MCW BAE FNT YYZ BGR |
| Aircraft | L101/H-SDFGHIRWXY/S |
Departure
| Time | 2026-05-05 09:55 |
|---|---|
| Airport | Palmdale Regional Airport / USAF Plant 42 Airport (KPMD) |
Arrival
| Time | N/A |
|---|---|
| Airport | Bangor International Airport (KBGR) |
| Time | Latitude | Longitude | Altitude | Speed | Heading |
|---|---|---|---|---|---|
| 2026-05-05 08:40 | 34.63805 | -118.08201 | 2520 ft | 0 kts | 182° |
| 2026-05-05 09:29 | 34.63805 | -118.08200 | 2520 ft | 1 kts | 184° |
| 2026-05-05 09:43 | 34.63804 | -118.08200 | 2520 ft | 0 kts | 185° |
| 2026-05-05 09:43 | 34.63783 | -118.08204 | 2514 ft | 5 kts | 195° |
| 2026-05-05 09:43 | 34.63739 | -118.08244 | 2521 ft | 10 kts | 231° |
| 2026-05-05 09:44 | 34.63685 | -118.08290 | 2519 ft | 8 kts | 198° |
| 2026-05-05 09:44 | 34.63638 | -118.08298 | 2525 ft | 6 kts | 184° |
| 2026-05-05 09:44 | 34.63608 | -118.08299 | 2528 ft | 3 kts | 181° |
| 2026-05-05 09:44 | 34.63583 | -118.08300 | 2527 ft | 4 kts | 181° |
| 2026-05-05 09:45 | 34.63551 | -118.08301 | 2526 ft | 5 kts | 185° |
| 2026-05-05 09:45 | 34.63520 | -118.08327 | 2525 ft | 6 kts | 237° |
| 2026-05-05 09:45 | 34.63507 | -118.08398 | 2525 ft | 11 kts | 264° |
| 2026-05-05 09:45 | 34.63501 | -118.08510 | 2533 ft | 15 kts | 266° |
| 2026-05-05 09:46 | 34.63491 | -118.08658 | 2531 ft | 20 kts | 265° |
| 2026-05-05 09:46 | 34.63482 | -118.08842 | 2519 ft | 23 kts | 265° |
| 2026-05-05 09:46 | 34.63470 | -118.09043 | 2524 ft | 25 kts | 265° |
| 2026-05-05 09:46 | 34.63457 | -118.09263 | 2519 ft | 26 kts | 266° |
| 2026-05-05 09:47 | 34.63447 | -118.09458 | 2513 ft | 19 kts | 266° |
| 2026-05-05 09:47 | 34.63438 | -118.09587 | 2515 ft | 8 kts | 253° |
| 2026-05-05 09:47 | 34.63394 | -118.09629 | 2508 ft | 9 kts | 217° |
| 2026-05-05 09:47 | 34.63365 | -118.09715 | 2510 ft | 13 kts | 262° |
| 2026-05-05 09:48 | 34.63357 | -118.09837 | 2513 ft | 16 kts | 267° |
| 2026-05-05 09:48 | 34.63350 | -118.09974 | 2518 ft | 17 kts | 266° |
| 2026-05-05 09:48 | 34.63342 | -118.10135 | 2515 ft | 21 kts | 266° |
| 2026-05-05 09:48 | 34.63330 | -118.10331 | 2510 ft | 25 kts | 266° |
| 2026-05-05 09:49 | 34.63317 | -118.10552 | 2512 ft | 28 kts | 266° |
| 2026-05-05 09:49 | 34.63304 | -118.10802 | 2505 ft | 31 kts | 265° |
| 2026-05-05 09:49 | 34.63290 | -118.11041 | 2496 ft | 28 kts | 267° |
| 2026-05-05 09:49 | 34.63276 | -118.11226 | 2496 ft | 17 kts | 253° |
| 2026-05-05 09:50 | 34.63204 | -118.11303 | 2494 ft | 14 kts | 189° |
| 2026-05-05 09:50 | 34.63184 | -118.11304 | 2497 ft | 0 kts | 179° |
| 2026-05-05 09:52 | 34.63182 | -118.11304 | 2497 ft | 2 kts | 180° |
| 2026-05-05 09:53 | 34.63141 | -118.11302 | 2495 ft | 10 kts | 175° |
| 2026-05-05 09:53 | 34.63071 | -118.11259 | 2494 ft | 12 kts | 117° |
| 2026-05-05 09:53 | 34.63065 | -118.11211 | 2495 ft | 0 kts | 89° |
| 2026-05-05 09:54 | 34.63079 | -118.10884 | 2502 ft | 85 kts | 86° |
| 2026-05-05 09:54 | 34.63144 | -118.09805 | 2522 ft | 167 kts | 88° |
| 2026-05-05 09:55 | 34.63231 | -118.08359 | 3445 ft | 180 kts | 90° |
| 2026-05-05 09:55 | 34.63324 | -118.06780 | 4341 ft | 200 kts | 87° |
| 2026-05-05 09:55 | 34.63373 | -118.04956 | 5047 ft | 229 kts | 88° |
| 2026-05-05 09:55 | 34.63641 | -118.03068 | 6038 ft | 215 kts | 77° |
| 2026-05-05 09:56 | 34.64028 | -118.01392 | 6681 ft | 201 kts | 73° |
| 2026-05-05 09:56 | 34.64392 | -117.99758 | 7198 ft | 199 kts | 76° |
| 2026-05-05 09:56 | 34.64662 | -117.98158 | 7973 ft | 186 kts | 84° |
| 2026-05-05 09:56 | 34.64590 | -117.96675 | 8762 ft | 167 kts | 102° |
| 2026-05-05 09:57 | 34.64447 | -117.95306 | 9471 ft | 165 kts | 98° |
| 2026-05-05 09:57 | 34.64460 | -117.93827 | 9920 ft | 184 kts | 88° |
| 2026-05-05 09:57 | 34.64539 | -117.92260 | 10272 ft | 187 kts | 89° |
| 2026-05-05 09:57 | 34.64768 | -117.90704 | 10622 ft | 191 kts | 78° |
| 2026-05-05 09:58 | 34.65224 | -117.89181 | 10968 ft | 193 kts | 61° |
| 2026-05-05 09:58 | 34.66036 | -117.87855 | 11334 ft | 204 kts | 49° |
| 2026-05-05 09:58 | 34.67051 | -117.86446 | 11657 ft | 241 kts | 47° |
| 2026-05-05 09:58 | 34.68255 | -117.84831 | 12026 ft | 271 kts | 46° |
| 2026-05-05 09:59 | 34.69553 | -117.83108 | 12591 ft | 285 kts | 46° |
| 2026-05-05 09:59 | 34.70904 | -117.81317 | 12901 ft | 289 kts | 46° |
| 2026-05-05 09:59 | 34.72274 | -117.79498 | 13414 ft | 292 kts | 46° |
| 2026-05-05 09:59 | 34.73662 | -117.77651 | 13950 ft | 306 kts | 46° |
| 2026-05-05 10:00 | 34.75195 | -117.75617 | 14322 ft | 348 kts | 46° |
| 2026-05-05 10:00 | 34.76910 | -117.73355 | 14615 ft | 387 kts | 46° |
| 2026-05-05 10:00 | 34.78776 | -117.70898 | 14948 ft | 405 kts | 46° |
| 2026-05-05 10:00 | 34.80703 | -117.68322 | 15473 ft | 416 kts | 47° |
| 2026-05-05 10:01 | 34.82689 | -117.65653 | 16019 ft | 423 kts | 47° |
| 2026-05-05 10:01 | 34.84681 | -117.63001 | 16556 ft | 427 kts | 47° |
| 2026-05-05 10:01 | 34.86591 | -117.60269 | 17041 ft | 431 kts | 52° |
| 2026-05-05 10:01 | 34.88422 | -117.57303 | 17547 ft | 434 kts | 53° |
| 2026-05-05 10:02 | 34.90223 | -117.54391 | 18082 ft | 437 kts | 52° |
| 2026-05-05 10:02 | 34.92079 | -117.51435 | 18567 ft | 441 kts | 52° |
| 2026-05-05 10:02 | 34.93988 | -117.48424 | 19041 ft | 444 kts | 52° |
| 2026-05-05 10:02 | 34.95841 | -117.45522 | 19511 ft | 447 kts | 52° |
| 2026-05-05 10:03 | 34.97748 | -117.42490 | 19988 ft | 450 kts | 52° |
| 2026-05-05 10:03 | 34.99661 | -117.39462 | 20488 ft | 453 kts | 52° |
| 2026-05-05 10:03 | 35.01607 | -117.36430 | 20990 ft | 456 kts | 52° |
| 2026-05-05 10:03 | 35.03578 | -117.33385 | 21514 ft | 460 kts | 52° |
| 2026-05-05 10:04 | 35.05566 | -117.30327 | 22022 ft | 464 kts | 52° |
| 2026-05-05 10:04 | 35.07584 | -117.27214 | 22576 ft | 468 kts | 52° |
| 2026-05-05 10:04 | 35.09631 | -117.24075 | 23119 ft | 472 kts | 52° |
| 2026-05-05 10:04 | 35.11686 | -117.20934 | 23645 ft | 476 kts | 52° |
| 2026-05-05 10:05 | 35.13764 | -117.17761 | 24108 ft | 480 kts | 52° |
| 2026-05-05 10:05 | 35.15823 | -117.14519 | 24563 ft | 485 kts | 54° |
| 2026-05-05 10:05 | 35.17818 | -117.11154 | 25042 ft | 490 kts | 56° |
| 2026-05-05 10:05 | 35.19764 | -117.07765 | 25528 ft | 494 kts | 56° |
| 2026-05-05 10:06 | 35.21712 | -117.04279 | 26046 ft | 499 kts | 58° |
| 2026-05-05 10:06 | 35.23546 | -117.00657 | 26539 ft | 503 kts | 60° |
| 2026-05-05 10:06 | 35.24724 | -116.98202 | 26887 ft | 506 kts | 61° |
| 2026-05-05 10:06 | 35.26473 | -116.94435 | 27422 ft | 511 kts | 62° |
| 2026-05-05 10:07 | 35.28221 | -116.90623 | 27961 ft | 516 kts | 62° |
| 2026-05-05 10:07 | 35.29986 | -116.86776 | 28455 ft | 521 kts | 62° |
| 2026-05-05 10:07 | 35.31778 | -116.82870 | 29033 ft | 527 kts | 62° |
| 2026-05-05 10:07 | 35.33581 | -116.78942 | 29600 ft | 532 kts | 62° |
| 2026-05-05 10:08 | 35.35409 | -116.74976 | 30140 ft | 538 kts | 62° |
| 2026-05-05 10:08 | 35.37187 | -116.70912 | 30607 ft | 542 kts | 67° |
| 2026-05-05 10:08 | 35.38912 | -116.66789 | 31099 ft | 546 kts | 62° |
| 2026-05-05 10:08 | 35.40810 | -116.62750 | 31596 ft | 550 kts | 61° |
| 2026-05-05 10:09 | 35.42788 | -116.58706 | 32077 ft | 553 kts | 59° |
| 2026-05-05 10:09 | 35.44866 | -116.54723 | 32568 ft | 559 kts | 58° |
| 2026-05-05 10:09 | 35.47041 | -116.50705 | 33083 ft | 566 kts | 58° |
| 2026-05-05 10:09 | 35.49202 | -116.46735 | 33612 ft | 569 kts | 58° |
| 2026-05-05 10:10 | 35.51370 | -116.42573 | 34092 ft | 571 kts | 60° |
| 2026-05-05 10:10 | 35.53473 | -116.38445 | 34544 ft | 571 kts | 59° |
| 2026-05-05 10:10 | 35.55600 | -116.34416 | 35007 ft | 570 kts | 59° |
| 2026-05-05 10:10 | 35.57696 | -116.30280 | 35475 ft | 569 kts | 60° |
| 2026-05-05 10:11 | 35.59788 | -116.26147 | 35952 ft | 569 kts | 59° |
| 2026-05-05 10:11 | 35.61916 | -116.22026 | 36425 ft | 573 kts | 61° |
| 2026-05-05 10:11 | 35.64010 | -116.17845 | 36645 ft | 577 kts | 59° |
| 2026-05-05 10:11 | 35.66193 | -116.13689 | 36797 ft | 578 kts | 59° |
| 2026-05-05 10:12 | 35.70641 | -116.05453 | 36899 ft | 574 kts | 58° |
| 2026-05-05 10:12 | 35.74873 | -115.97160 | 36908 ft | 572 kts | 60° |
| 2026-05-05 10:13 | 35.79097 | -115.88851 | 36915 ft | 577 kts | 62° |
| 2026-05-05 10:13 | 35.83349 | -115.80445 | 36916 ft | 578 kts | 59° |
| 2026-05-05 10:14 | 35.87672 | -115.72063 | 36914 ft | 579 kts | 59° |
| 2026-05-05 10:14 | 35.92115 | -115.63845 | 36895 ft | 579 kts | 58° |
| 2026-05-05 10:15 | 35.96223 | -115.55227 | 36914 ft | 582 kts | 69° |
| 2026-05-05 10:15 | 35.99872 | -115.46248 | 36932 ft | 585 kts | 64° |
| 2026-05-05 10:16 | 36.04091 | -115.37631 | 36894 ft | 586 kts | 59° |
| 2026-05-05 10:16 | 36.08565 | -115.29167 | 36905 ft | 590 kts | 59° |
| 2026-05-05 10:17 | 36.13117 | -115.20777 | 36907 ft | 586 kts | 59° |
| 2026-05-05 10:17 | 36.17536 | -115.12323 | 36873 ft | 584 kts | 58° |
| 2026-05-05 10:18 | 36.22004 | -115.03908 | 36855 ft | 584 kts | 61° |
| 2026-05-05 10:18 | 36.25997 | -114.95109 | 36834 ft | 587 kts | 65° |
| 2026-05-05 10:19 | 36.29756 | -114.86106 | 36836 ft | 587 kts | 66° |
| 2026-05-05 10:19 | 36.33403 | -114.77119 | 36821 ft | 587 kts | 66° |
| 2026-05-05 10:20 | 36.37087 | -114.68077 | 36797 ft | 586 kts | 67° |
| 2026-05-05 10:20 | 36.40459 | -114.58897 | 36789 ft | 584 kts | 70° |
| 2026-05-05 10:21 | 36.43892 | -114.49733 | 36789 ft | 586 kts | 68° |
| 2026-05-05 10:21 | 36.47502 | -114.40653 | 36791 ft | 586 kts | 67° |
| 2026-05-05 10:22 | 36.51186 | -114.31565 | 36787 ft | 590 kts | 66° |
| 2026-05-05 10:22 | 36.54875 | -114.22454 | 36798 ft | 589 kts | 68° |
| 2026-05-05 10:23 | 36.58192 | -114.13165 | 36806 ft | 587 kts | 70° |
| 2026-05-05 10:23 | 36.61562 | -114.04007 | 36801 ft | 586 kts | 69° |
| 2026-05-05 10:24 | 36.65049 | -113.94806 | 36822 ft | 587 kts | 68° |
| 2026-05-05 10:24 | 36.68595 | -113.85641 | 36827 ft | 587 kts | 69° |
| 2026-05-05 10:25 | 36.72014 | -113.76398 | 36825 ft | 588 kts | 68° |
| 2026-05-05 10:25 | 36.75588 | -113.67201 | 36845 ft | 590 kts | 68° |
| 2026-05-05 10:26 | 36.78975 | -113.57896 | 36871 ft | 589 kts | 69° |
| 2026-05-05 10:26 | 36.82366 | -113.48593 | 36884 ft | 589 kts | 68° |
| 2026-05-05 10:27 | 36.85935 | -113.39366 | 36842 ft | 591 kts | 66° |
| 2026-05-05 10:27 | 36.89601 | -113.30176 | 36910 ft | 591 kts | 66° |
| 2026-05-05 10:28 | 36.90824 | -113.27091 | 36929 ft | 591 kts | 66° |
| 2026-05-05 10:29 | 37.00354 | -113.02554 | 37001 ft | 591 kts | 69° |
| 2026-05-05 10:29 | 37.03735 | -112.93147 | 36995 ft | 590 kts | 70° |
| 2026-05-05 10:30 | 37.06808 | -112.83623 | 36957 ft | 590 kts | 71° |
| 2026-05-05 10:30 | 37.10040 | -112.74164 | 36933 ft | 591 kts | 69° |
| 2026-05-05 10:31 | 37.13600 | -112.64869 | 36859 ft | 592 kts | 66° |
| 2026-05-05 10:31 | 37.17240 | -112.55693 | 36842 ft | 592 kts | 67° |
| 2026-05-05 10:32 | 37.20879 | -112.46411 | 36840 ft | 592 kts | 66° |
| 2026-05-05 10:32 | 37.24572 | -112.37136 | 36831 ft | 595 kts | 66° |
| 2026-05-05 10:33 | 37.28248 | -112.27826 | 36831 ft | 594 kts | 68° |
| 2026-05-05 10:33 | 37.31706 | -112.18393 | 36821 ft | 594 kts | 68° |
| 2026-05-05 10:34 | 37.35283 | -112.09032 | 36816 ft | 596 kts | 66° |
| 2026-05-05 10:34 | 37.38919 | -111.99738 | 36829 ft | 596 kts | 66° |
| 2026-05-05 10:35 | 37.42615 | -111.90394 | 36824 ft | 597 kts | 66° |
| 2026-05-05 10:35 | 37.46302 | -111.81008 | 36816 ft | 596 kts | 66° |
| 2026-05-05 10:36 | 37.49548 | -111.71511 | 36822 ft | 591 kts | 72° |
| 2026-05-05 10:36 | 37.52072 | -111.61714 | 36801 ft | 588 kts | 76° |
| 2026-05-05 10:37 | 37.54873 | -111.52029 | 36820 ft | 591 kts | 70° |
| 2026-05-05 10:37 | 37.58307 | -111.42562 | 36819 ft | 591 kts | 66° |
| 2026-05-05 10:38 | 37.61910 | -111.33310 | 36796 ft | 591 kts | 66° |
| 2026-05-05 10:38 | 37.65520 | -111.23975 | 36792 ft | 591 kts | 66° |
| 2026-05-05 10:39 | 37.69210 | -111.14693 | 36784 ft | 591 kts | 65° |
| 2026-05-05 10:39 | 37.72946 | -111.05398 | 36776 ft | 593 kts | 65° |
| 2026-05-05 10:40 | 37.76659 | -110.96158 | 36776 ft | 593 kts | 65° |
| 2026-05-05 10:40 | 37.80402 | -110.86835 | 36772 ft | 593 kts | 65° |
| 2026-05-05 10:41 | 37.84125 | -110.77572 | 36759 ft | 594 kts | 65° |
| 2026-05-05 10:41 | 37.87871 | -110.68225 | 36765 ft | 594 kts | 65° |
| 2026-05-05 10:42 | 37.93482 | -110.54186 | 36763 ft | 594 kts | 65° |
| 2026-05-05 10:43 | 37.97204 | -110.44889 | 36750 ft | 596 kts | 64° |
| 2026-05-05 10:43 | 38.00946 | -110.35496 | 36761 ft | 594 kts | 64° |
| 2026-05-05 10:44 | 38.04650 | -110.26137 | 36758 ft | 594 kts | 65° |
| 2026-05-05 10:44 | 38.08368 | -110.16729 | 36755 ft | 594 kts | 65° |
| 2026-05-05 10:45 | 38.12046 | -110.07410 | 36765 ft | 597 kts | 64° |
| 2026-05-05 10:45 | 38.15757 | -109.97966 | 36771 ft | 595 kts | 64° |
| 2026-05-05 10:46 | 38.19437 | -109.88580 | 36772 ft | 596 kts | 64° |
| 2026-05-05 10:46 | 38.23137 | -109.79135 | 36755 ft | 596 kts | 64° |
| 2026-05-05 10:47 | 38.26819 | -109.69683 | 36751 ft | 597 kts | 64° |
| 2026-05-05 10:47 | 38.30502 | -109.60203 | 36753 ft | 597 kts | 64° |
| 2026-05-05 10:48 | 38.34196 | -109.50700 | 36764 ft | 597 kts | 64° |
| 2026-05-05 10:48 | 38.37891 | -109.41222 | 36759 ft | 598 kts | 64° |
| 2026-05-05 10:49 | 38.41571 | -109.31720 | 36765 ft | 597 kts | 64° |
| 2026-05-05 10:49 | 38.45221 | -109.22258 | 36756 ft | 595 kts | 64° |
| 2026-05-05 10:50 | 38.48881 | -109.12782 | 36763 ft | 596 kts | 64° |
| 2026-05-05 10:50 | 38.52556 | -109.03239 | 36749 ft | 597 kts | 64° |
| 2026-05-05 10:51 | 38.56216 | -108.93717 | 36776 ft | 597 kts | 64° |
| 2026-05-05 10:51 | 38.59851 | -108.84225 | 36757 ft | 597 kts | 64° |
| 2026-05-05 10:52 | 38.63501 | -108.74649 | 36772 ft | 598 kts | 64° |
| 2026-05-05 10:52 | 38.67142 | -108.65083 | 36766 ft | 598 kts | 64° |
| 2026-05-05 10:53 | 38.70771 | -108.55526 | 36766 ft | 598 kts | 64° |
| 2026-05-05 10:53 | 38.74402 | -108.45972 | 36783 ft | 598 kts | 64° |
| 2026-05-05 10:54 | 38.78045 | -108.36359 | 36830 ft | 600 kts | 64° |
| 2026-05-05 10:54 | 38.81646 | -108.26785 | 36867 ft | 597 kts | 64° |
| 2026-05-05 10:55 | 38.85232 | -108.17205 | 36905 ft | 597 kts | 64° |
| 2026-05-05 10:55 | 38.88248 | -108.09156 | 36911 ft | 596 kts | 64° |
| 2026-05-05 10:56 | 38.91832 | -107.99596 | 36883 ft | 597 kts | 64° |
| 2026-05-05 10:56 | 38.95443 | -107.89994 | 36851 ft | 597 kts | 64° |
| 2026-05-05 10:57 | 38.99073 | -107.80333 | 36787 ft | 597 kts | 64° |
| 2026-05-05 10:57 | 39.02674 | -107.70752 | 36796 ft | 597 kts | 64° |
| 2026-05-05 10:58 | 39.06257 | -107.61122 | 36802 ft | 598 kts | 64° |
| 2026-05-05 10:58 | 39.09847 | -107.51448 | 36800 ft | 597 kts | 64° |
| 2026-05-05 10:59 | 39.13421 | -107.41828 | 36801 ft | 598 kts | 64° |
| 2026-05-05 10:59 | 39.17009 | -107.32153 | 36819 ft | 598 kts | 63° |
| 2026-05-05 11:00 | 39.20558 | -107.22477 | 36805 ft | 595 kts | 64° |
| 2026-05-05 11:00 | 39.23891 | -107.12772 | 36807 ft | 596 kts | 65° |
| 2026-05-05 11:01 | 39.27294 | -107.03019 | 36807 ft | 595 kts | 64° |
| 2026-05-05 11:01 | 39.30782 | -106.93311 | 36805 ft | 593 kts | 64° |
| 2026-05-05 11:02 | 39.34301 | -106.83639 | 36953 ft | 595 kts | 63° |
| 2026-05-05 11:02 | 39.37849 | -106.73962 | 36836 ft | 596 kts | 63° |
| 2026-05-05 11:03 | 39.41362 | -106.64283 | 36837 ft | 597 kts | 63° |
| 2026-05-05 11:03 | 39.44859 | -106.54550 | 36814 ft | 595 kts | 63° |
| 2026-05-05 11:04 | 39.48382 | -106.44831 | 36809 ft | 598 kts | 63° |
| 2026-05-05 11:04 | 39.51907 | -106.35079 | 36808 ft | 596 kts | 64° |
| 2026-05-05 11:05 | 39.55355 | -106.25375 | 36791 ft | 596 kts | 63° |
| 2026-05-05 11:05 | 39.58846 | -106.15620 | 36768 ft | 596 kts | 63° |
| 2026-05-05 11:06 | 39.62351 | -106.05853 | 36761 ft | 596 kts | 63° |
| 2026-05-05 11:06 | 39.65851 | -105.96097 | 36759 ft | 595 kts | 63° |
| 2026-05-05 11:07 | 39.69308 | -105.86329 | 36756 ft | 595 kts | 63° |
| 2026-05-05 11:07 | 39.72718 | -105.76593 | 36756 ft | 595 kts | 63° |
| 2026-05-05 11:08 | 39.76174 | -105.66790 | 36756 ft | 595 kts | 63° |
| 2026-05-05 11:08 | 39.79627 | -105.56995 | 36778 ft | 596 kts | 63° |
| 2026-05-05 11:09 | 39.82417 | -105.46831 | 36882 ft | 599 kts | 72° |
| 2026-05-05 11:09 | 39.85159 | -105.36600 | 36933 ft | 597 kts | 66° |
| 2026-05-05 11:10 | 39.88318 | -105.26675 | 37010 ft | 599 kts | 64° |
| 2026-05-05 11:10 | 39.91643 | -105.16725 | 37028 ft | 597 kts | 63° |
| 2026-05-05 11:11 | 39.95005 | -105.06827 | 37389 ft | 596 kts | 63° |
| 2026-05-05 11:11 | 39.96689 | -105.01886 | 37674 ft | 596 kts | 63° |
| 2026-05-05 11:11 | 39.98376 | -104.96936 | 37860 ft | 597 kts | 63° |
| 2026-05-05 11:11 | 40.00055 | -104.91990 | 38191 ft | 597 kts | 62° |
| 2026-05-05 11:12 | 40.01732 | -104.87039 | 38516 ft | 598 kts | 62° |
| 2026-05-05 11:12 | 40.03409 | -104.82064 | 38738 ft | 598 kts | 62° |
| 2026-05-05 11:12 | 40.05078 | -104.77103 | 38857 ft | 597 kts | 62° |
| 2026-05-05 11:13 | 40.08391 | -104.67215 | 38852 ft | 597 kts | 63° |
| 2026-05-05 11:13 | 40.11582 | -104.57185 | 38913 ft | 598 kts | 64° |
| 2026-05-05 11:14 | 40.14560 | -104.47031 | 38924 ft | 598 kts | 65° |
| 2026-05-05 11:14 | 40.17558 | -104.36876 | 38916 ft | 599 kts | 66° |
| 2026-05-05 11:15 | 40.20544 | -104.26694 | 38905 ft | 598 kts | 64° |
| 2026-05-05 11:15 | 40.23739 | -104.16622 | 38893 ft | 598 kts | 64° |
| 2026-05-05 11:16 | 40.26803 | -104.06548 | 38890 ft | 599 kts | 65° |
| 2026-05-05 11:16 | 40.29933 | -103.96466 | 38993 ft | 597 kts | 64° |
| 2026-05-05 11:17 | 40.33054 | -103.86363 | 38997 ft | 598 kts | 65° |
| 2026-05-05 11:17 | 40.36214 | -103.76248 | 39007 ft | 598 kts | 63° |
| 2026-05-05 11:18 | 40.39435 | -103.66193 | 38990 ft | 598 kts | 63° |
| 2026-05-05 11:18 | 40.42682 | -103.56208 | 38962 ft | 598 kts | 63° |
| 2026-05-05 11:19 | 40.45818 | -103.46066 | 38980 ft | 600 kts | 64° |
| 2026-05-05 11:19 | 40.48996 | -103.35921 | 38997 ft | 599 kts | 63° |
| 2026-05-05 11:20 | 40.52110 | -103.25734 | 39016 ft | 600 kts | 63° |
| 2026-05-05 11:20 | 40.55152 | -103.15512 | 39013 ft | 600 kts | 64° |
| 2026-05-05 11:21 | 40.58275 | -103.05339 | 38931 ft | 598 kts | 63° |
| 2026-05-05 11:21 | 40.61402 | -102.95252 | 38931 ft | 598 kts | 63° |
| 2026-05-05 11:22 | 40.64610 | -102.85134 | 38942 ft | 595 kts | 62° |
| 2026-05-05 11:22 | 40.67834 | -102.75178 | 38947 ft | 591 kts | 62° |
| 2026-05-05 11:23 | 40.70901 | -102.65123 | 38940 ft | 592 kts | 65° |
| 2026-05-05 11:23 | 40.73778 | -102.54935 | 38941 ft | 592 kts | 65° |
| 2026-05-05 11:24 | 40.76691 | -102.44858 | 38946 ft | 591 kts | 63° |
| 2026-05-05 11:24 | 40.79795 | -102.34789 | 38947 ft | 586 kts | 62° |
| 2026-05-05 11:25 | 40.82818 | -102.24806 | 38949 ft | 588 kts | 64° |
| 2026-05-05 11:25 | 40.85856 | -102.14815 | 38956 ft | 587 kts | 63° |
| 2026-05-05 11:26 | 40.88878 | -102.04765 | 38971 ft | 587 kts | 63° |
| 2026-05-05 11:26 | 40.91972 | -101.94888 | 38993 ft | 585 kts | 62° |
| 2026-05-05 11:27 | 40.94990 | -101.84872 | 38999 ft | 586 kts | 63° |
| 2026-05-05 11:27 | 40.97884 | -101.74743 | 39008 ft | 587 kts | 65° |
| 2026-05-05 11:28 | 41.00889 | -101.64680 | 39020 ft | 586 kts | 62° |
| 2026-05-05 11:28 | 41.04045 | -101.54775 | 39001 ft | 585 kts | 62° |
| 2026-05-05 11:29 | 41.07191 | -101.44816 | 38986 ft | 586 kts | 63° |
| 2026-05-05 11:29 | 41.10257 | -101.34858 | 38971 ft | 586 kts | 62° |
| 2026-05-05 11:30 | 41.13391 | -101.24856 | 38962 ft | 585 kts | 62° |
| 2026-05-05 11:30 | 41.16594 | -101.14977 | 38954 ft | 584 kts | 61° |
| 2026-05-05 11:31 | 41.19732 | -101.04986 | 38969 ft | 586 kts | 63° |
| 2026-05-05 11:31 | 41.22862 | -100.95037 | 38969 ft | 585 kts | 62° |
| 2026-05-05 11:32 | 41.25907 | -100.85011 | 38985 ft | 588 kts | 65° |
| 2026-05-05 11:32 | 41.28866 | -100.74914 | 38987 ft | 586 kts | 63° |
| 2026-05-05 11:33 | 41.32002 | -100.64909 | 38980 ft | 586 kts | 61° |
| 2026-05-05 11:33 | 41.35220 | -100.54917 | 38980 ft | 584 kts | 61° |
| 2026-05-05 11:34 | 41.38387 | -100.44982 | 38967 ft | 584 kts | 61° |
| 2026-05-05 11:34 | 41.41570 | -100.35044 | 38957 ft | 584 kts | 61° |
| 2026-05-05 11:35 | 41.44753 | -100.25108 | 38949 ft | 584 kts | 60° |
| 2026-05-05 11:35 | 41.48008 | -100.15180 | 38957 ft | 582 kts | 60° |
| 2026-05-05 11:36 | 41.51207 | -100.05232 | 38939 ft | 582 kts | 60° |
| 2026-05-05 11:36 | 41.54457 | -99.95353 | 38936 ft | 582 kts | 60° |
| 2026-05-05 11:37 | 41.57613 | -99.85372 | 38950 ft | 586 kts | 62° |
| 2026-05-05 11:37 | 41.60792 | -99.75383 | 38936 ft | 583 kts | 61° |
| 2026-05-05 11:38 | 41.63850 | -99.65370 | 38928 ft | 585 kts | 63° |
| 2026-05-05 11:38 | 41.66972 | -99.55326 | 38924 ft | 584 kts | 61° |
| 2026-05-05 11:39 | 41.70101 | -99.45284 | 38941 ft | 584 kts | 61° |
| 2026-05-05 11:39 | 41.73316 | -99.35340 | 38933 ft | 583 kts | 61° |
| 2026-05-05 11:40 | 41.76511 | -99.25325 | 38944 ft | 583 kts | 60° |
| 2026-05-05 11:40 | 41.79780 | -99.15408 | 38948 ft | 583 kts | 60° |
| 2026-05-05 11:41 | 41.82969 | -99.05389 | 38955 ft | 583 kts | 60° |
| 2026-05-05 11:41 | 41.86200 | -98.95436 | 38964 ft | 583 kts | 60° |
| 2026-05-05 11:42 | 41.89323 | -98.85349 | 38952 ft | 583 kts | 61° |
| 2026-05-05 11:42 | 41.92541 | -98.75438 | 38956 ft | 583 kts | 60° |
| 2026-05-05 11:43 | 41.95723 | -98.65398 | 38954 ft | 580 kts | 61° |
| 2026-05-05 11:43 | 41.98927 | -98.55507 | 38960 ft | 580 kts | 61° |
| 2026-05-05 11:44 | 42.02050 | -98.45495 | 38966 ft | 580 kts | 60° |
| 2026-05-05 11:44 | 42.04771 | -98.37183 | 38966 ft | 580 kts | 59° |
| 2026-05-05 11:45 | 42.08004 | -98.27206 | 38972 ft | 581 kts | 61° |
| 2026-05-05 11:45 | 42.11224 | -98.17312 | 38970 ft | 580 kts | 59° |
| 2026-05-05 11:46 | 42.14455 | -98.07417 | 38987 ft | 577 kts | 60° |
| 2026-05-05 11:46 | 42.17761 | -97.97518 | 38978 ft | 576 kts | 59° |
| 2026-05-05 11:47 | 42.21040 | -97.87645 | 38984 ft | 577 kts | 59° |
| 2026-05-05 11:47 | 42.24373 | -97.77841 | 38980 ft | 577 kts | 59° |
| 2026-05-05 11:48 | 42.29386 | -97.63067 | 38984 ft | 577 kts | 59° |
| 2026-05-05 11:48 | 42.32761 | -97.53199 | 38997 ft | 576 kts | 59° |
| 2026-05-05 11:49 | 42.36083 | -97.43425 | 38978 ft | 576 kts | 60° |
| 2026-05-05 11:49 | 42.39271 | -97.33490 | 38995 ft | 574 kts | 60° |
| 2026-05-05 11:50 | 42.42571 | -97.23606 | 38977 ft | 574 kts | 61° |
| 2026-05-05 11:50 | 42.45812 | -97.13757 | 38972 ft | 573 kts | 59° |
| 2026-05-05 11:51 | 42.49149 | -97.03970 | 38977 ft | 572 kts | 59° |
| 2026-05-05 11:51 | 42.52561 | -96.94309 | 38973 ft | 572 kts | 58° |
| 2026-05-05 11:52 | 42.55906 | -96.84485 | 38971 ft | 573 kts | 59° |
| 2026-05-05 11:52 | 42.59293 | -96.74714 | 38974 ft | 571 kts | 58° |
| 2026-05-05 11:53 | 42.62733 | -96.64982 | 38958 ft | 571 kts | 58° |
| 2026-05-05 11:53 | 42.66187 | -96.55250 | 38956 ft | 571 kts | 58° |
| 2026-05-05 11:54 | 42.69614 | -96.45508 | 38950 ft | 570 kts | 58° |
| 2026-05-05 11:54 | 42.73035 | -96.35854 | 38924 ft | 571 kts | 59° |
| 2026-05-05 11:55 | 42.76426 | -96.26082 | 38922 ft | 570 kts | 58° |
| 2026-05-05 11:55 | 42.79851 | -96.16349 | 38928 ft | 571 kts | 60° |
| 2026-05-05 11:56 | 42.83197 | -96.06511 | 38932 ft | 570 kts | 58° |
| 2026-05-05 11:56 | 42.86626 | -95.96840 | 38954 ft | 569 kts | 58° |
| 2026-05-05 11:57 | 42.90104 | -95.87132 | 38937 ft | 566 kts | 58° |
| 2026-05-05 11:57 | 42.93584 | -95.77496 | 38933 ft | 566 kts | 58° |
| 2026-05-05 11:58 | 42.97079 | -95.67906 | 38934 ft | 566 kts | 57° |
| 2026-05-05 11:58 | 43.00615 | -95.58299 | 38936 ft | 566 kts | 58° |
| 2026-05-05 11:59 | 43.03946 | -95.48520 | 38924 ft | 567 kts | 59° |
| 2026-05-05 11:59 | 43.07396 | -95.38853 | 38917 ft | 566 kts | 58° |
| 2026-05-05 12:00 | 43.10944 | -95.29257 | 38937 ft | 564 kts | 57° |
| 2026-05-05 12:00 | 43.14497 | -95.19728 | 38913 ft | 565 kts | 59° |
| 2026-05-05 12:01 | 43.17664 | -95.09891 | 38913 ft | 565 kts | 60° |
| 2026-05-05 12:01 | 43.21069 | -95.00193 | 38917 ft | 564 kts | 58° |
| 2026-05-05 12:02 | 43.24613 | -94.90575 | 38924 ft | 563 kts | 57° |
| 2026-05-05 12:02 | 43.28220 | -94.81058 | 38923 ft | 563 kts | 57° |
| 2026-05-05 12:03 | 43.31837 | -94.71533 | 38930 ft | 563 kts | 57° |
| 2026-05-05 12:03 | 43.35323 | -94.61855 | 38928 ft | 564 kts | 59° |
| 2026-05-05 12:04 | 43.38810 | -94.52270 | 38914 ft | 563 kts | 57° |
| 2026-05-05 12:04 | 43.42430 | -94.42704 | 38908 ft | 563 kts | 58° |
| 2026-05-05 12:05 | 43.46073 | -94.33138 | 38909 ft | 562 kts | 57° |
| 2026-05-05 12:05 | 43.49488 | -94.23441 | 38907 ft | 566 kts | 62° |
| 2026-05-05 12:06 | 43.52819 | -94.13728 | 38915 ft | 563 kts | 58° |
| 2026-05-05 12:06 | 43.56363 | -94.04009 | 38940 ft | 565 kts | 61° |
| 2026-05-05 12:07 | 43.59661 | -93.94242 | 38901 ft | 563 kts | 58° |
| 2026-05-05 12:07 | 43.63016 | -93.84440 | 38892 ft | 569 kts | 67° |
| 2026-05-05 12:08 | 43.64672 | -93.73714 | 38900 ft | 575 kts | 85° |
| 2026-05-05 12:08 | 43.64085 | -93.62714 | 38903 ft | 575 kts | 104° |
| 2026-05-05 12:09 | 43.63007 | -93.57480 | 38907 ft | 573 kts | 110° |
| 2026-05-05 12:09 | 43.58312 | -93.41656 | 38887 ft | 569 kts | 119° |
| 2026-05-05 12:10 | 43.55593 | -93.31337 | 38881 ft | 575 kts | 107° |
| 2026-05-05 12:10 | 43.53984 | -93.20565 | 38882 ft | 577 kts | 97° |
| 2026-05-05 12:11 | 43.53347 | -93.09536 | 38876 ft | 577 kts | 92° |
| 2026-05-05 12:11 | 43.53099 | -92.98473 | 38877 ft | 577 kts | 90° |
| 2026-05-05 12:12 | 43.52990 | -92.87470 | 38871 ft | 577 kts | 90° |
| 2026-05-05 12:12 | 43.52958 | -92.81941 | 38878 ft | 577 kts | 90° |